createdAt,value
2023-04-21T00:00:10.075Z,88.06
2023-04-21T00:00:42.447Z,88.06
2023-04-21T00:01:14.961Z,88.06
2023-04-21T00:01:47.435Z,88.06
2023-04-21T00:02:20.001Z,87.96
2023-04-21T00:02:52.665Z,87.96
2023-04-21T00:03:25.187Z,87.96
2023-04-21T00:03:57.568Z,87.96
2023-04-21T00:04:30.183Z,88.06
2023-04-21T00:05:02.633Z,88.17
2023-04-21T00:05:35.082Z,88.17
2023-04-21T00:06:07.511Z,88.17
2023-04-21T00:06:39.998Z,88.17
2023-04-21T00:07:12.538Z,88.17
2023-04-21T00:07:45.027Z,88.17
2023-04-21T00:08:17.567Z,88.27
2023-04-21T00:08:50.090Z,88.47
2023-04-21T00:09:22.625Z,88.37
2023-04-21T00:09:55.142Z,88.37
2023-04-21T00:10:27.627Z,88.57
2023-04-21T00:11:00.137Z,88.57
2023-04-21T00:11:32.680Z,88.57
2023-04-21T00:12:05.175Z,88.57
2023-04-21T00:12:37.694Z,88.57
2023-04-21T00:13:10.190Z,88.57
2023-04-21T00:13:42.687Z,88.68
2023-04-21T00:14:15.229Z,88.57
2023-04-21T00:14:47.693Z,88.57
2023-04-21T00:15:20.201Z,88.57
2023-04-21T00:15:52.761Z,88.68
2023-04-21T00:16:25.253Z,88.68
2023-04-21T00:16:57.682Z,88.78
2023-04-21T00:17:30.236Z,88.68
2023-04-21T00:18:02.713Z,88.68
2023-04-21T00:18:35.189Z,88.68
2023-04-21T00:19:07.721Z,88.64
2023-04-21T00:19:40.226Z,88.64
2023-04-21T00:20:12.734Z,88.74
2023-04-21T00:20:45.300Z,88.88
2023-04-21T00:21:17.785Z,88.88
2023-04-21T00:21:50.296Z,88.94
2023-04-21T00:22:22.842Z,89.04
2023-04-21T00:22:55.428Z,89.04
2023-04-21T00:23:27.863Z,89.04
2023-04-21T00:24:00.416Z,89.04
2023-04-21T00:24:32.932Z,89.04
2023-04-21T00:25:05.500Z,89.15
2023-04-21T00:25:37.955Z,89.25
2023-04-21T00:26:10.467Z,89.25
2023-04-21T00:26:42.964Z,89.25
2023-04-21T00:27:15.457Z,89.25
2023-04-21T00:27:47.970Z,89.25
2023-04-21T00:28:20.522Z,89.15
2023-04-21T00:28:53.048Z,89.15
2023-04-21T00:29:25.558Z,89.25
2023-04-21T00:29:58.057Z,89.25
2023-04-21T00:30:30.559Z,89.15
2023-04-21T00:31:03.085Z,89.25
2023-04-21T00:31:35.639Z,89.25
2023-04-21T00:32:08.064Z,89.25
2023-04-21T00:32:40.625Z,89.36
2023-04-21T00:33:13.060Z,89.25
2023-04-21T00:33:45.551Z,89.36
2023-04-21T00:34:18.061Z,89.36
2023-04-21T00:34:50.556Z,89.25
2023-04-21T00:35:23.069Z,89.25
2023-04-21T00:35:55.573Z,89.36
2023-04-21T00:36:28.061Z,89.36
2023-04-21T00:37:00.641Z,89.25
2023-04-21T00:37:33.106Z,89.36
2023-04-21T00:38:05.608Z,89.45
2023-04-21T00:38:38.097Z,89.36
2023-04-21T00:39:10.656Z,89.45
2023-04-21T00:39:43.145Z,89.42
2023-04-21T00:40:15.647Z,89.31
2023-04-21T00:40:48.146Z,89.31
2023-04-21T00:41:20.659Z,89.21
2023-04-21T00:41:53.149Z,89.31
2023-04-21T00:42:25.675Z,89.21
2023-04-21T00:42:58.239Z,89.11
2023-04-21T00:43:30.776Z,89.11
2023-04-21T00:44:03.295Z,89.11
2023-04-21T00:44:35.849Z,89.11
2023-04-21T00:45:08.367Z,89.11
2023-04-21T00:45:40.860Z,89.11
2023-04-21T00:46:13.399Z,89.11
2023-04-21T00:46:45.907Z,89.11
2023-04-21T00:47:18.393Z,89.11
2023-04-21T00:47:50.916Z,89.11
2023-04-21T00:48:23.408Z,89.11
2023-04-21T00:48:55.950Z,89.11
2023-04-21T00:49:28.435Z,89.11
2023-04-21T00:50:00.974Z,89.21
2023-04-21T00:50:33.507Z,89.21
2023-04-21T00:51:06.004Z,89.11
2023-04-21T00:51:38.540Z,89.11
2023-04-21T00:52:11.030Z,89.11
2023-04-21T00:52:43.540Z,89.11
2023-04-21T00:53:16.047Z,89.11
2023-04-21T00:53:48.560Z,89.00
2023-04-21T00:54:21.087Z,89.11
2023-04-21T00:54:53.625Z,89.00
2023-04-21T00:55:26.125Z,89.11
2023-04-21T00:55:58.641Z,89.11
2023-04-21T00:56:31.258Z,89.11
2023-04-21T00:57:03.788Z,89.11
2023-04-21T00:57:36.296Z,89.11
2023-04-21T00:58:08.858Z,89.00
2023-04-21T00:58:41.406Z,89.11
2023-04-21T00:59:13.931Z,89.00
2023-04-21T00:59:46.429Z,89.11
2023-04-21T01:00:18.992Z,89.11
2023-04-21T01:00:51.499Z,89.11
2023-04-21T01:01:24.123Z,89.00
2023-04-21T01:01:56.544Z,89.00
2023-04-21T01:02:29.187Z,89.00
2023-04-21T01:03:01.838Z,89.00
2023-04-21T01:03:34.167Z,89.00
2023-04-21T01:04:06.706Z,89.00
2023-04-21T01:04:39.024Z,89.00
2023-04-21T01:05:11.535Z,89.00
2023-04-21T01:05:44.043Z,89.00
2023-04-21T01:06:16.560Z,89.00
2023-04-21T01:06:49.050Z,89.00
2023-04-21T01:07:21.582Z,89.00
2023-04-21T01:07:54.059Z,89.00
2023-04-21T01:08:26.579Z,88.90
2023-04-21T01:08:59.081Z,88.90
2023-04-21T01:09:31.625Z,88.90
2023-04-21T01:10:04.132Z,88.90
2023-04-21T01:10:36.658Z,88.90
2023-04-21T01:11:09.183Z,88.90
2023-04-21T01:11:41.725Z,88.90
2023-04-21T01:12:14.213Z,88.90
2023-04-21T01:12:46.723Z,88.80
2023-04-21T01:13:19.227Z,88.90
2023-04-21T01:13:51.806Z,88.90
2023-04-21T01:14:24.310Z,88.80
2023-04-21T01:14:56.832Z,88.80
2023-04-21T01:15:29.406Z,88.80
2023-04-21T01:16:01.866Z,88.80
2023-04-21T01:16:34.367Z,88.80
2023-04-21T01:17:06.901Z,88.90
2023-04-21T01:17:39.442Z,88.80
2023-04-21T01:18:11.996Z,88.90
2023-04-21T01:18:44.467Z,88.90
2023-04-21T01:19:17.276Z,88.90
2023-04-21T01:19:49.500Z,88.90
2023-04-21T01:20:22.009Z,88.90
2023-04-21T01:20:54.519Z,88.90
2023-04-21T01:21:27.051Z,89.00
2023-04-21T01:21:59.557Z,88.90
2023-04-21T01:22:32.073Z,89.00
2023-04-21T01:23:04.585Z,89.11
2023-04-21T01:23:37.114Z,89.11
2023-04-21T01:24:09.630Z,89.11
2023-04-21T01:24:42.163Z,89.11
2023-04-21T01:25:14.637Z,89.11
2023-04-21T01:25:47.179Z,89.11
2023-04-21T01:26:19.702Z,89.11
2023-04-21T01:26:52.220Z,89.11
2023-04-21T01:27:24.757Z,89.11
2023-04-21T01:27:57.283Z,89.11
2023-04-21T01:28:29.795Z,89.11
2023-04-21T01:29:02.311Z,89.11
2023-04-21T01:29:34.824Z,89.00
2023-04-21T01:30:07.341Z,89.00
2023-04-21T01:30:39.835Z,89.00
2023-04-21T01:31:12.357Z,89.11
2023-04-21T01:31:44.955Z,89.00
2023-04-21T01:32:17.468Z,89.00
2023-04-21T01:32:50.013Z,89.00
2023-04-21T01:33:22.440Z,89.00
2023-04-21T01:33:54.992Z,88.90
2023-04-21T01:34:27.522Z,88.90
2023-04-21T01:35:00.067Z,88.90
2023-04-21T01:35:32.529Z,89.00
2023-04-21T01:36:05.042Z,89.00
2023-04-21T01:36:37.543Z,89.00
2023-04-21T01:37:10.039Z,89.00
2023-04-21T01:37:42.596Z,89.00
2023-04-21T01:38:16.430Z,89.00
2023-04-21T01:38:47.689Z,89.00
2023-04-21T01:39:20.427Z,89.00
2023-04-21T01:39:52.714Z,88.90
2023-04-21T01:40:25.231Z,88.90
2023-04-21T01:40:57.735Z,88.90
2023-04-21T01:41:30.239Z,88.90
2023-04-21T01:42:02.730Z,88.90
2023-04-21T01:42:35.228Z,88.90
2023-04-21T01:43:07.766Z,89.00
2023-04-21T01:43:40.314Z,89.00
2023-04-21T01:44:12.814Z,89.00
2023-04-21T01:44:45.329Z,89.00
2023-04-21T01:45:17.836Z,89.00
2023-04-21T01:45:50.395Z,89.00
2023-04-21T01:46:22.941Z,89.11
2023-04-21T01:46:55.371Z,89.11
2023-04-21T01:47:27.856Z,89.11
2023-04-21T01:48:00.417Z,89.11
2023-04-21T01:48:32.890Z,89.11
2023-04-21T01:49:05.419Z,89.11
2023-04-21T01:49:37.926Z,89.11
2023-04-21T01:50:10.468Z,89.11
2023-04-21T01:50:42.974Z,89.11
2023-04-21T01:51:15.488Z,89.11
2023-04-21T01:51:48.035Z,89.11
2023-04-21T01:52:20.568Z,89.00
2023-04-21T01:52:53.105Z,89.00
2023-04-21T01:53:25.637Z,89.11
2023-04-21T01:53:58.207Z,89.11
2023-04-21T01:54:30.782Z,89.11
2023-04-21T01:55:03.336Z,89.11
2023-04-21T01:55:35.852Z,89.11
2023-04-21T01:56:08.371Z,89.11
2023-04-21T01:56:40.923Z,89.00
2023-04-21T01:57:13.501Z,89.00
2023-04-21T01:57:45.918Z,89.00
2023-04-21T01:58:18.449Z,89.00
2023-04-21T01:58:51.023Z,89.00
2023-04-21T01:59:23.574Z,89.11
2023-04-21T01:59:56.081Z,89.11
2023-04-21T02:00:28.606Z,89.11
2023-04-21T02:01:01.773Z,89.11
2023-04-21T02:01:34.260Z,89.11
2023-04-21T02:02:06.822Z,89.11
2023-04-21T02:02:39.437Z,89.11
2023-04-21T02:03:12.023Z,89.21
2023-04-21T02:03:44.543Z,89.11
2023-04-21T02:04:17.028Z,89.11
2023-04-21T02:04:49.462Z,89.21
2023-04-21T02:05:22.028Z,89.21
2023-04-21T02:05:54.605Z,89.11
2023-04-21T02:06:27.116Z,89.11
2023-04-21T02:06:59.713Z,89.11
2023-04-21T02:07:32.202Z,89.11
2023-04-21T02:08:04.736Z,89.11
2023-04-21T02:08:37.238Z,89.11
2023-04-21T02:09:09.772Z,89.11
2023-04-21T02:09:42.296Z,89.11
2023-04-21T02:10:14.811Z,89.21
2023-04-21T02:10:47.358Z,89.21
2023-04-21T02:11:19.892Z,89.21
2023-04-21T02:11:52.379Z,89.21
2023-04-21T02:12:24.939Z,89.21
2023-04-21T02:12:57.464Z,89.21
2023-04-21T02:13:29.995Z,89.21
2023-04-21T02:14:02.532Z,89.21
2023-04-21T02:14:35.045Z,89.21
2023-04-21T02:15:07.664Z,89.21
2023-04-21T02:15:40.189Z,89.21
2023-04-21T02:16:13.896Z,89.21
2023-04-21T02:16:45.300Z,89.21
2023-04-21T02:17:17.804Z,89.31
2023-04-21T02:17:50.314Z,89.21
2023-04-21T02:18:22.854Z,89.21
2023-04-21T02:18:55.428Z,89.21
2023-04-21T02:19:27.948Z,89.21
2023-04-21T02:20:01.089Z,89.31
2023-04-21T02:20:33.039Z,89.31
2023-04-21T02:21:05.602Z,89.21
2023-04-21T02:21:38.215Z,89.21
2023-04-21T02:22:10.723Z,89.21
2023-04-21T02:22:43.283Z,89.21
2023-04-21T02:23:15.816Z,89.21
2023-04-21T02:23:48.333Z,89.21
2023-04-21T02:24:20.845Z,89.31
2023-04-21T02:24:53.349Z,89.31
2023-04-21T02:25:25.855Z,89.21
2023-04-21T02:25:58.364Z,89.21
2023-04-21T02:26:30.992Z,89.21
2023-04-21T02:27:03.523Z,89.21
2023-04-21T02:27:36.057Z,89.31
2023-04-21T02:28:09.361Z,89.21
2023-04-21T02:28:41.879Z,89.21
2023-04-21T02:29:14.412Z,89.21
2023-04-21T02:29:46.959Z,89.31
2023-04-21T02:30:19.491Z,89.31
2023-04-21T02:30:52.113Z,89.31
2023-04-21T02:31:24.692Z,89.31
2023-04-21T02:32:02.796Z,89.31
2023-04-21T02:32:29.805Z,89.31
2023-04-21T02:33:02.203Z,89.42
2023-04-21T02:33:34.684Z,89.42
2023-04-21T02:34:07.211Z,89.31
2023-04-21T02:34:39.733Z,89.31
2023-04-21T02:35:12.326Z,89.31
2023-04-21T02:35:44.851Z,89.31
2023-04-21T02:36:17.384Z,89.21
2023-04-21T02:36:49.915Z,89.31
2023-04-21T02:37:22.406Z,89.21
2023-04-21T02:37:54.913Z,89.21
2023-04-21T02:38:27.440Z,89.31
2023-04-21T02:38:59.954Z,89.31
2023-04-21T02:39:32.527Z,89.31
2023-04-21T02:40:05.103Z,89.42
2023-04-21T02:40:37.623Z,89.42
2023-04-21T02:41:10.166Z,89.42
2023-04-21T02:41:42.681Z,89.42
2023-04-21T02:42:15.205Z,89.42
2023-04-21T02:42:47.717Z,89.42
2023-04-21T02:43:20.256Z,89.42
2023-04-21T02:43:52.791Z,89.42
2023-04-21T02:44:25.337Z,89.42
2023-04-21T02:44:57.862Z,89.42
2023-04-21T02:45:30.387Z,89.42
2023-04-21T02:46:02.917Z,89.42
2023-04-21T02:46:35.556Z,89.42
2023-04-21T02:47:08.033Z,89.42
2023-04-21T02:47:40.606Z,89.42
2023-04-21T02:48:13.059Z,89.42
2023-04-21T02:48:45.581Z,89.31
2023-04-21T02:49:18.299Z,89.42
2023-04-21T02:49:50.637Z,89.42
2023-04-21T02:50:23.171Z,89.42
2023-04-21T02:50:55.705Z,89.42
2023-04-21T02:51:28.247Z,89.51
2023-04-21T02:52:00.745Z,89.42
2023-04-21T02:52:33.284Z,89.51
2023-04-21T02:53:05.762Z,89.51
2023-04-21T02:53:38.316Z,89.51
2023-04-21T02:54:10.811Z,89.51
2023-04-21T02:54:43.328Z,89.42
2023-04-21T02:55:15.825Z,89.42
2023-04-21T02:55:48.333Z,89.42
2023-04-21T02:56:20.819Z,89.42
2023-04-21T02:56:53.289Z,89.42
2023-04-21T02:57:25.824Z,89.51
2023-04-21T02:57:58.319Z,89.42
2023-04-21T02:58:30.831Z,89.42
2023-04-21T02:59:03.327Z,89.42
2023-04-21T02:59:35.833Z,89.42
2023-04-21T03:00:08.352Z,89.31
2023-04-21T03:00:40.879Z,89.31
2023-04-21T03:01:13.348Z,89.31
2023-04-21T03:01:45.808Z,89.42
2023-04-21T03:02:18.336Z,89.42
2023-04-21T03:02:50.928Z,89.31
2023-04-21T03:03:23.504Z,89.31
2023-04-21T03:03:55.984Z,89.42
2023-04-21T03:04:28.391Z,89.42
2023-04-21T03:05:00.842Z,89.42
2023-04-21T03:05:33.337Z,89.42
2023-04-21T03:06:05.858Z,89.42
2023-04-21T03:06:38.369Z,89.42
2023-04-21T03:07:10.914Z,89.42
2023-04-21T03:07:43.413Z,89.42
2023-04-21T03:08:15.914Z,89.42
2023-04-21T03:08:48.413Z,89.42
2023-04-21T03:09:21.110Z,89.42
2023-04-21T03:09:53.478Z,89.42
2023-04-21T03:10:25.978Z,89.42
2023-04-21T03:10:58.454Z,89.42
2023-04-21T03:11:30.977Z,89.42
2023-04-21T03:12:03.463Z,89.51
2023-04-21T03:12:35.972Z,89.51
2023-04-21T03:13:08.467Z,89.51
2023-04-21T03:13:40.977Z,89.51
2023-04-21T03:14:13.442Z,89.42
2023-04-21T03:14:45.932Z,89.51
2023-04-21T03:15:18.428Z,89.51
2023-04-21T03:15:50.963Z,89.51
2023-04-21T03:16:23.485Z,89.51
2023-04-21T03:16:55.980Z,89.51
2023-04-21T03:17:29.805Z,89.42
2023-04-21T03:18:00.999Z,89.42
2023-04-21T03:18:33.446Z,89.42
2023-04-21T03:19:05.995Z,89.42
2023-04-21T03:19:38.512Z,89.42
2023-04-21T03:20:11.011Z,89.31
2023-04-21T03:20:43.520Z,89.31
2023-04-21T03:21:16.055Z,89.31
2023-04-21T03:21:48.561Z,89.31
2023-04-21T03:22:21.072Z,89.31
2023-04-21T03:22:53.596Z,89.31
2023-04-21T03:23:26.094Z,89.31
2023-04-21T03:23:58.620Z,89.31
2023-04-21T03:24:31.149Z,89.21
2023-04-21T03:25:03.633Z,89.31
2023-04-21T03:25:36.187Z,89.31
2023-04-21T03:26:08.716Z,89.31
2023-04-21T03:26:41.212Z,89.31
2023-04-21T03:27:13.687Z,89.31
2023-04-21T03:27:46.235Z,89.31
2023-04-21T03:28:18.781Z,89.31
2023-04-21T03:28:51.312Z,89.31
2023-04-21T03:29:23.819Z,89.31
2023-04-21T03:29:56.333Z,89.31
2023-04-21T03:30:28.895Z,89.21
2023-04-21T03:31:01.404Z,89.21
2023-04-21T03:31:33.945Z,89.21
2023-04-21T03:32:06.470Z,89.11
2023-04-21T03:32:38.923Z,89.11
2023-04-21T03:33:11.517Z,89.11
2023-04-21T03:33:43.921Z,89.11
2023-04-21T03:34:16.418Z,89.11
2023-04-21T03:34:48.957Z,89.11
2023-04-21T03:35:21.477Z,89.21
2023-04-21T03:35:53.996Z,89.21
2023-04-21T03:36:26.536Z,89.21
2023-04-21T03:36:59.051Z,89.21
2023-04-21T03:37:31.548Z,89.21
2023-04-21T03:38:04.297Z,89.21
2023-04-21T03:38:36.573Z,89.31
2023-04-21T03:39:19.334Z,89.31
2023-04-21T03:39:41.595Z,89.31
2023-04-21T03:40:14.098Z,89.21
2023-04-21T03:40:46.578Z,89.11
2023-04-21T03:41:19.081Z,89.21
2023-04-21T03:41:51.625Z,89.11
2023-04-21T03:42:24.127Z,89.11
2023-04-21T03:42:56.605Z,89.11
2023-04-21T03:43:29.141Z,89.11
2023-04-21T03:44:01.665Z,89.11
2023-04-21T03:44:34.222Z,89.00
2023-04-21T03:45:06.740Z,89.00
2023-04-21T03:45:39.285Z,89.00
2023-04-21T03:46:11.753Z,89.00
2023-04-21T03:46:44.263Z,89.11
2023-04-21T03:47:16.770Z,89.11
2023-04-21T03:47:49.280Z,89.00
2023-04-21T03:48:21.749Z,89.11
2023-04-21T03:48:54.253Z,89.11
2023-04-21T03:49:26.736Z,89.11
2023-04-21T03:49:59.257Z,89.00
2023-04-21T03:50:31.810Z,89.00
2023-04-21T03:51:04.299Z,88.90
2023-04-21T03:51:36.798Z,88.90
2023-04-21T03:52:09.324Z,88.90
2023-04-21T03:52:41.821Z,88.80
2023-04-21T03:53:14.344Z,88.76
2023-04-21T03:53:46.847Z,88.80
2023-04-21T03:54:19.387Z,88.65
2023-04-21T03:54:51.883Z,88.65
2023-04-21T03:55:24.388Z,88.80
2023-04-21T03:55:56.881Z,88.90
2023-04-21T03:56:29.404Z,88.90
2023-04-21T03:57:01.909Z,88.80
2023-04-21T03:57:34.427Z,88.80
2023-04-21T03:58:06.923Z,88.86
2023-04-21T03:58:39.463Z,88.90
2023-04-21T03:59:11.973Z,88.86
2023-04-21T03:59:44.480Z,88.86
2023-04-21T04:00:16.958Z,88.76
2023-04-21T04:00:49.509Z,88.65
2023-04-21T04:01:22.030Z,88.76
2023-04-21T04:01:54.558Z,88.65
2023-04-21T04:02:27.190Z,88.65
2023-04-21T04:02:59.828Z,88.65
2023-04-21T04:03:32.235Z,88.65
2023-04-21T04:04:04.824Z,88.65
2023-04-21T04:04:37.164Z,88.65
2023-04-21T04:05:09.666Z,88.65
2023-04-21T04:05:42.233Z,88.80
2023-04-21T04:06:14.588Z,88.76
2023-04-21T04:06:47.112Z,88.76
2023-04-21T04:07:19.610Z,88.65
2023-04-21T04:07:52.116Z,88.65
2023-04-21T04:08:24.668Z,88.65
2023-04-21T04:08:57.179Z,88.65
2023-04-21T04:09:29.689Z,88.56
2023-04-21T04:10:02.178Z,88.56
2023-04-21T04:10:34.711Z,88.56
2023-04-21T04:11:07.245Z,88.56
2023-04-21T04:11:39.747Z,88.45
2023-04-21T04:12:12.257Z,88.56
2023-04-21T04:12:44.829Z,88.56
2023-04-21T04:13:17.337Z,88.45
2023-04-21T04:13:49.916Z,88.45
2023-04-21T04:14:22.399Z,88.45
2023-04-21T04:14:54.986Z,88.35
2023-04-21T04:15:27.403Z,88.35
2023-04-21T04:15:59.962Z,88.45
2023-04-21T04:16:32.614Z,88.45
2023-04-21T04:17:05.089Z,88.45
2023-04-21T04:17:37.626Z,88.45
2023-04-21T04:18:10.150Z,88.45
2023-04-21T04:18:42.572Z,88.56
2023-04-21T04:19:15.158Z,88.56
2023-04-21T04:19:47.643Z,88.56
2023-04-21T04:20:20.141Z,88.56
2023-04-21T04:20:52.657Z,88.56
2023-04-21T04:21:25.181Z,88.56
2023-04-21T04:21:57.708Z,88.56
2023-04-21T04:22:30.322Z,88.56
2023-04-21T04:23:02.749Z,88.56
2023-04-21T04:23:35.290Z,88.56
2023-04-21T04:24:07.803Z,88.56
2023-04-21T04:24:40.290Z,88.56
2023-04-21T04:25:12.793Z,88.56
2023-04-21T04:25:45.321Z,88.65
2023-04-21T04:26:17.890Z,88.65
2023-04-21T04:26:50.436Z,88.65
2023-04-21T04:27:23.001Z,88.65
2023-04-21T04:27:55.529Z,88.65
2023-04-21T04:28:28.030Z,88.76
2023-04-21T04:29:00.567Z,88.76
2023-04-21T04:29:33.109Z,88.76
2023-04-21T04:30:05.687Z,88.76
2023-04-21T04:30:38.177Z,88.86
2023-04-21T04:31:10.778Z,88.86
2023-04-21T04:31:43.292Z,88.86
2023-04-21T04:32:15.757Z,88.86
2023-04-21T04:32:48.293Z,88.86
2023-04-21T04:33:20.782Z,88.86
2023-04-21T04:33:54.985Z,88.76
2023-04-21T04:34:25.839Z,88.76
2023-04-21T04:34:58.377Z,88.76
2023-04-21T04:35:30.896Z,88.86
2023-04-21T04:36:03.479Z,88.86
2023-04-21T04:36:35.991Z,88.86
2023-04-21T04:37:08.536Z,88.86
2023-04-21T04:37:41.043Z,88.86
2023-04-21T04:38:13.543Z,88.76
2023-04-21T04:38:46.082Z,88.76
2023-04-21T04:39:18.706Z,88.76
2023-04-21T04:39:51.092Z,88.76
2023-04-21T04:40:23.610Z,88.76
2023-04-21T04:40:56.089Z,88.65
2023-04-21T04:41:28.591Z,88.76
2023-04-21T04:42:01.107Z,88.65
2023-04-21T04:42:33.633Z,88.65
2023-04-21T04:43:06.169Z,88.65
2023-04-21T04:43:38.688Z,88.65
2023-04-21T04:44:11.271Z,88.65
2023-04-21T04:44:43.691Z,88.65
2023-04-21T04:45:16.207Z,88.65
2023-04-21T04:45:48.743Z,88.65
2023-04-21T04:46:21.288Z,88.65
2023-04-21T04:46:53.783Z,88.65
2023-04-21T04:47:26.350Z,88.65
2023-04-21T04:47:58.791Z,88.65
2023-04-21T04:48:31.261Z,88.65
2023-04-21T04:49:03.763Z,88.65
2023-04-21T04:49:36.253Z,88.76
2023-04-21T04:50:08.762Z,88.65
2023-04-21T04:50:41.255Z,88.62
2023-04-21T04:51:13.807Z,88.62
2023-04-21T04:51:46.336Z,88.62
2023-04-21T04:52:18.851Z,88.62
2023-04-21T04:52:51.387Z,88.41
2023-04-21T04:53:23.900Z,88.41
2023-04-21T04:53:56.433Z,88.31
2023-04-21T04:54:28.949Z,88.31
2023-04-21T04:55:01.534Z,88.20
2023-04-21T04:55:34.053Z,88.10
2023-04-21T04:56:06.635Z,88.00
2023-04-21T04:56:39.166Z,87.90
2023-04-21T04:57:11.700Z,87.79
2023-04-21T04:57:44.259Z,87.79
2023-04-21T04:58:16.767Z,87.79
2023-04-21T04:58:49.287Z,87.79
2023-04-21T04:59:21.858Z,87.70
2023-04-21T04:59:54.387Z,87.70
2023-04-21T05:00:26.893Z,87.70
2023-04-21T05:00:59.381Z,87.70
2023-04-21T05:01:31.936Z,87.70
2023-04-21T05:02:04.476Z,87.70
2023-04-21T05:02:37.423Z,87.59
2023-04-21T05:03:09.861Z,87.59
2023-04-21T05:03:42.459Z,87.70
2023-04-21T05:04:14.957Z,87.70
2023-04-21T05:04:47.440Z,87.59
2023-04-21T05:05:19.841Z,87.59
2023-04-21T05:05:52.393Z,87.59
2023-04-21T05:06:24.926Z,87.49
2023-04-21T05:06:57.460Z,87.49
2023-04-21T05:07:29.981Z,87.59
2023-04-21T05:08:02.655Z,87.49
2023-04-21T05:08:43.076Z,87.38
2023-04-21T05:09:15.582Z,87.49
2023-04-21T05:09:48.064Z,87.49
2023-04-21T05:10:20.584Z,87.29
2023-04-21T05:10:53.074Z,87.18
2023-04-21T05:11:25.605Z,87.29
2023-04-21T05:11:58.113Z,87.29
2023-04-21T05:12:30.606Z,87.18
2023-04-21T05:13:03.130Z,87.18
2023-04-21T05:13:36.945Z,87.18
2023-04-21T05:14:08.137Z,87.18
2023-04-21T05:14:40.626Z,87.14
2023-04-21T05:15:13.162Z,87.08
2023-04-21T05:15:45.664Z,87.08
2023-04-21T05:16:18.245Z,87.18
2023-04-21T05:16:50.877Z,86.98
2023-04-21T05:17:23.327Z,86.88
2023-04-21T05:17:55.831Z,86.77
2023-04-21T05:18:28.322Z,86.67
2023-04-21T05:19:00.839Z,86.67
2023-04-21T05:19:33.349Z,86.88
2023-04-21T05:20:05.863Z,86.88
2023-04-21T05:20:38.370Z,86.88
2023-04-21T05:21:10.974Z,86.77
2023-04-21T05:21:43.501Z,86.77
2023-04-21T05:22:15.996Z,86.77
2023-04-21T05:22:48.540Z,86.67
2023-04-21T05:23:21.029Z,86.67
2023-04-21T05:23:53.556Z,86.77
2023-04-21T05:24:26.175Z,86.77
2023-04-21T05:24:58.726Z,86.67
2023-04-21T05:25:31.241Z,86.67
2023-04-21T05:26:04.757Z,86.67
2023-04-21T05:26:36.305Z,86.67
2023-04-21T05:27:08.834Z,86.67
2023-04-21T05:27:41.313Z,86.67
2023-04-21T05:28:13.829Z,86.67
2023-04-21T05:28:46.365Z,86.73
2023-04-21T05:29:18.891Z,86.57
2023-04-21T05:29:51.434Z,86.36
2023-04-21T05:30:23.943Z,86.46
2023-04-21T05:30:56.447Z,86.57
2023-04-21T05:31:29.055Z,86.46
2023-04-21T05:32:01.761Z,86.46
2023-04-21T05:32:34.239Z,86.46
2023-04-21T05:33:06.675Z,86.36
2023-04-21T05:33:39.160Z,86.46
2023-04-21T05:34:11.662Z,86.36
2023-04-21T05:34:44.172Z,86.46
2023-04-21T05:35:16.644Z,86.43
2023-04-21T05:35:49.190Z,86.43
2023-04-21T05:36:21.683Z,86.32
2023-04-21T05:36:54.174Z,86.32
2023-04-21T05:37:26.736Z,86.22
2023-04-21T05:37:59.320Z,86.12
2023-04-21T05:38:31.868Z,86.02
2023-04-21T05:39:04.396Z,85.91
2023-04-21T05:39:37.424Z,85.81
2023-04-21T05:40:09.942Z,85.71
2023-04-21T05:40:42.482Z,85.61
2023-04-21T05:41:15.049Z,85.71
2023-04-21T05:41:47.572Z,85.61
2023-04-21T05:42:20.141Z,85.71
2023-04-21T05:42:52.670Z,85.57
2023-04-21T05:43:25.202Z,85.57
2023-04-21T05:43:57.681Z,85.57
2023-04-21T05:44:30.224Z,85.57
2023-04-21T05:45:02.718Z,85.36
2023-04-21T05:45:35.269Z,85.16
2023-04-21T05:46:07.836Z,85.06
2023-04-21T05:46:40.435Z,85.16
2023-04-21T05:47:12.910Z,85.16
2023-04-21T05:47:45.422Z,84.95
2023-04-21T05:48:17.947Z,84.85
2023-04-21T05:48:50.439Z,84.65
2023-04-21T05:49:22.953Z,84.55
2023-04-21T05:49:55.429Z,84.65
2023-04-21T05:50:27.959Z,84.75
2023-04-21T05:51:00.496Z,84.75
2023-04-21T05:51:33.014Z,84.75
2023-04-21T05:52:05.545Z,84.75
2023-04-21T05:52:38.044Z,84.85
2023-04-21T05:53:10.568Z,84.65
2023-04-21T05:53:43.089Z,84.65
2023-04-21T05:54:15.568Z,84.75
2023-04-21T05:54:48.069Z,84.85
2023-04-21T05:55:20.643Z,84.95
2023-04-21T05:55:53.125Z,84.95
2023-04-21T05:56:25.647Z,84.65
2023-04-21T05:56:58.183Z,84.55
2023-04-21T05:57:30.671Z,84.55
2023-04-21T05:58:03.151Z,84.65
2023-04-21T05:58:35.679Z,84.55
2023-04-21T05:59:08.192Z,84.65
2023-04-21T05:59:40.714Z,84.75
2023-04-21T06:00:13.202Z,84.65
2023-04-21T06:00:46.897Z,84.55
2023-04-21T06:01:18.198Z,84.55
2023-04-21T06:01:50.739Z,84.44
2023-04-21T06:02:23.377Z,84.44
2023-04-21T06:02:55.991Z,84.44
2023-04-21T06:03:28.466Z,84.34
2023-04-21T06:04:01.123Z,84.34
2023-04-21T06:04:33.590Z,84.14
2023-04-21T06:05:06.260Z,84.14
2023-04-21T06:05:38.436Z,84.09
2023-04-21T06:06:10.904Z,84.09
2023-04-21T06:06:43.432Z,84.00
2023-04-21T06:07:16.872Z,84.00
2023-04-21T06:07:48.455Z,84.00
2023-04-21T06:08:20.985Z,84.00
2023-04-21T06:08:53.476Z,83.89
2023-04-21T06:09:26.004Z,83.65
2023-04-21T06:09:58.526Z,83.75
2023-04-21T06:10:31.056Z,83.34
2023-04-21T06:11:03.561Z,83.20
2023-04-21T06:11:36.091Z,82.75
2023-04-21T06:12:08.601Z,82.24
2023-04-21T06:12:41.123Z,81.94
2023-04-21T06:13:13.656Z,81.84
2023-04-21T06:13:46.153Z,81.59
2023-04-21T06:14:19.112Z,81.18
2023-04-21T06:14:51.186Z,81.29
2023-04-21T06:15:23.663Z,81.09
2023-04-21T06:15:56.270Z,80.98
2023-04-21T06:16:28.743Z,80.68
2023-04-21T06:17:01.299Z,80.37
2023-04-21T06:17:33.841Z,80.07
2023-04-21T06:18:06.355Z,79.96
2023-04-21T06:18:38.821Z,79.96
2023-04-21T06:19:11.310Z,79.96
2023-04-21T06:19:43.808Z,79.96
2023-04-21T06:20:16.292Z,80.16
2023-04-21T06:20:48.787Z,80.16
2023-04-21T06:21:21.294Z,80.07
2023-04-21T06:21:53.821Z,80.16
2023-04-21T06:22:26.350Z,80.07
2023-04-21T06:22:58.856Z,80.16
2023-04-21T06:23:31.382Z,80.16
2023-04-21T06:24:03.885Z,80.27
2023-04-21T06:24:36.378Z,80.47
2023-04-21T06:25:08.885Z,80.16
2023-04-21T06:25:41.392Z,80.10
2023-04-21T06:26:13.908Z,80.10
2023-04-21T06:26:46.448Z,80.30
2023-04-21T06:27:18.947Z,80.37
2023-04-21T06:27:51.470Z,80.37
2023-04-21T06:28:23.998Z,80.27
2023-04-21T06:28:56.500Z,80.16
2023-04-21T06:29:29.022Z,80.07
2023-04-21T06:30:01.577Z,80.07
2023-04-21T06:30:34.026Z,80.27
2023-04-21T06:31:08.719Z,80.16
2023-04-21T06:31:39.075Z,80.27
2023-04-21T06:32:11.557Z,80.47
2023-04-21T06:32:44.105Z,80.37
2023-04-21T06:33:16.536Z,80.37
2023-04-21T06:33:49.053Z,80.27
2023-04-21T06:34:22.370Z,79.86
2023-04-21T06:34:54.733Z,79.66
2023-04-21T06:35:27.268Z,79.55
2023-04-21T06:35:59.863Z,79.55
2023-04-21T06:36:32.458Z,79.66
2023-04-21T06:37:05.009Z,79.55
2023-04-21T06:37:37.512Z,79.66
2023-04-21T06:38:10.038Z,79.45
2023-04-21T06:38:42.566Z,79.55
2023-04-21T06:39:15.117Z,79.66
2023-04-21T06:39:47.691Z,79.55
2023-04-21T06:40:20.207Z,79.45
2023-04-21T06:40:52.717Z,79.35
2023-04-21T06:41:25.203Z,79.55
2023-04-21T06:41:57.714Z,79.86
2023-04-21T06:42:30.249Z,79.96
2023-04-21T06:43:02.843Z,79.86
2023-04-21T06:43:35.354Z,79.72
2023-04-21T06:44:07.842Z,79.72
2023-04-21T06:44:40.345Z,79.72
2023-04-21T06:45:12.845Z,79.41
2023-04-21T06:45:45.396Z,79.21
2023-04-21T06:46:17.932Z,79.41
2023-04-21T06:46:50.550Z,79.41
2023-04-21T06:47:23.202Z,79.00
2023-04-21T06:47:55.594Z,79.11
2023-04-21T06:48:28.117Z,79.25
2023-04-21T06:49:01.103Z,79.45
2023-04-21T06:49:33.663Z,79.55
2023-04-21T06:50:06.157Z,79.66
2023-04-21T06:50:38.709Z,79.75
2023-04-21T06:51:11.281Z,79.75
2023-04-21T06:51:43.813Z,79.75
2023-04-21T06:52:16.761Z,79.55
2023-04-21T06:52:48.850Z,79.45
2023-04-21T06:53:21.394Z,79.66
2023-04-21T06:53:53.944Z,79.75
2023-04-21T06:54:26.468Z,79.86
2023-04-21T06:54:59.001Z,79.75
2023-04-21T06:55:31.519Z,79.96
2023-04-21T06:56:04.946Z,79.86
2023-04-21T06:56:37.457Z,79.86
2023-04-21T06:57:11.138Z,79.96
2023-04-21T06:57:43.649Z,79.96
2023-04-21T06:58:16.262Z,79.96
2023-04-21T06:58:48.751Z,79.66